To NAV CANADA Home Page Login to a new session Search on AWWS site Feedback and Comments Disclaimer Vers la page française équivalente Tips FAQ What's new on the site To the Forecasts and Observations / NOTAM section To "File a Flight Plan" website Publications and other links Update of the User's profile FIC Telephone Numbers My Weather Data Folder Route Weather Data Regional Weather Data Local Weather Data To the Forecasts and Observations / NOTAM section
Request Generated 07/31/2015 at 13:19:51 UTC . Weather information available at that time is displayed.

METAR/TAF

SAINT JOHN/NB    

METAR CYSJ 311300Z 20006KT 3SM BR BKN002 19/19 A2970 RMK SF6 VIS S 1
1/2 SLP058 DENSITY ALT 1100FT=
SPECI CYSJ 311232Z 24003KT 180V260 1SM R23/6000FT/U BR VV002 18/18
A2970 RMK FG8 SLP056 DENSITY ALT 1000FT=
SPECI CYSJ 311206Z 22002KT 1/2SM R23/2600V4000FT/N FG VV002 18/18
A2970 RMK FG8 SLP057 DENSITY ALT 1000FT=
METAR CYSJ 311200Z 18003KT 150V230 1/4SM R23/2600FT/N FG VV001 18/18
A2970 RMK FG8 SLP057 DENSITY ALT 1000FT=
SPECI CYSJ 311148Z VRB02KT 1/4SM R23/2400FT/N FG VV001 17/17 A2970
RMK FG8 SLP057 DENSITY ALT 900FT=
SPECI CYSJ 311136Z 20003KT 150V240 1/2SM R23/5500VP6000FT/D BR VV001
17/17 A2970 RMK FG8 SLP056 DENSITY ALT 900FT=
METAR CYSJ 311100Z 20004KT 3/4SM R23/6000FT/D BR VV002 16/16 A2970
RMK FG8 SLP056 DENSITY ALT 800FT=

TAF CYSJ 311138Z 3112/3124 22008KT 1/4SM FG VV001 TEMPO 3112/3113 1SM
BR VV002
FM311300 20005KT 11/2SM BR OVC003 TEMPO 3113/3116 P6SM NSW SCT008
FM311600 20006KT P6SM FEW008
BECMG 3116/3118 20012KT
RMK NXT FCST BY 311800Z=
Your time UTC time
Weather data provided by Environment Canada and NAV CANADA